Time;durP1;ratioP1;P1;durP2;ratioP2;P2;SDS_P1;SDS_P2;PMS_P1;PMS_P2;Temp;Humidity;BMP_temperature;BMP_pressure;BME280_temperature;BME280_humidity;BME280_pressure;Samples;Min_cycle;Max_cycle;Signal;HPM_P1;HPM_P2
2023/03/05 00:01:27;;;;;;;23.13;14.25;;;27.90;86.30;;;;;;5065739;28;20032;-58
2023/03/05 00:04:22;;;;;;;;;;;;;;;;;;;;;
2023/03/05 00:06:49;;;;;;;24.38;12.85;;;27.80;86.10;;;;;;5061306;28;20080;-53
2023/03/05 00:09:16;;;;;;;17.73;12.45;;;27.80;85.80;;;;;;5065097;28;20029;-55
2023/03/05 00:11:45;;;;;;;19.77;13.50;;;27.80;85.80;;;;;;5065829;28;20060;-56
2023/03/05 00:14:12;;;;;;;22.85;13.23;;;27.80;85.80;;;;;;5065358;28;20217;-59
2023/03/05 00:16:41;;;;;;;22.42;12.63;;;27.80;85.70;;;;;;5065382;28;20024;-55
2023/03/05 00:19:11;;;;;;;20.35;13.02;;;27.80;85.60;;;;;;5065236;28;20039;-58
2023/03/05 00:21:45;;;;;;;18.55;12.45;;;27.80;85.40;;;;;;5065344;28;20025;-54
2023/03/05 00:24:17;;;;;;;15.00;12.30;;;27.80;85.30;;;;;;5065483;28;20075;-59
2023/03/05 00:26:45;;;;;;;23.15;12.90;;;27.80;85.20;;;;;;5065160;28;20029;-59
2023/03/05 00:29:20;;;;;;;25.00;12.63;;;27.70;85.10;;;;;;5065287;28;20290;-54
2023/03/05 00:31:47;;;;;;;18.65;11.82;;;27.80;85.10;;;;;;5047785;28;20078;-57
2023/03/05 00:34:27;;;;;;;17.77;11.02;;;27.80;85.00;;;;;;5065088;28;20092;-57
2023/03/05 00:36:53;;;;;;;18.02;11.07;;;27.70;84.90;;;;;;5064980;28;20096;-55
2023/03/05 00:39:21;;;;;;;19.25;12.23;;;27.70;84.70;;;;;;5064495;28;20036;-53
2023/03/05 00:41:48;;;;;;;22.63;11.05;;;27.80;84.70;;;;;;5064717;28;20027;-57
2023/03/05 00:44:15;;;;;;;17.83;10.68;;;27.80;84.60;;;;;;5065064;28;20305;-54
2023/03/05 00:46:41;;;;;;;20.42;11.40;;;27.70;84.40;;;;;;5064647;28;20025;-59
2023/03/05 00:49:08;;;;;;;16.25;10.90;;;27.70;84.30;;;;;;5046985;28;20332;-57
2023/03/05 00:51:35;;;;;;;23.27;12.15;;;27.70;84.20;;;;;;5078622;28;20052;-53
2023/03/05 00:54:02;;;;;;;16.55;11.25;;;27.70;84.10;;;;;;5084283;28;20029;-56
2023/03/05 00:56:28;;;;;;;18.48;10.55;;;27.70;83.90;;;;;;5084862;28;20025;-54
2023/03/05 00:58:55;;;;;;;17.08;11.07;;;27.70;83.90;;;;;;5084468;28;20339;-55
2023/03/05 01:01:23;;;;;;;19.05;10.73;;;27.70;83.70;;;;;;5084553;28;20044;-55
2023/03/05 01:03:50;;;;;;;19.95;11.10;;;27.70;83.50;;;;;;5083445;28;20016;-52
2023/03/05 01:06:17;;;;;;;22.15;10.95;;;27.70;83.50;;;;;;5066633;28;20060;-54
2023/03/05 01:08:44;;;;;;;22.75;10.95;;;27.70;83.60;;;;;;5072923;28;20074;-55
2023/03/05 01:11:12;;;;;;;37.55;12.43;;;27.70;84.10;;;;;;5064700;28;20027;-54
2023/03/05 01:13:39;;;;;;;26.85;12.40;;;27.70;83.90;;;;;;5064379;28;20025;-54
2023/03/05 01:16:06;;;;;;;27.10;12.10;;;27.70;83.80;;;;;;5064614;28;20371;-55
2023/03/05 01:18:33;;;;;;;21.55;11.65;;;27.70;83.40;;;;;;5063777;28;20044;-53
2023/03/05 01:21:00;;;;;;;23.95;12.57;;;27.70;83.50;;;;;;5062401;28;20100;-54
2023/03/05 01:23:34;;;;;;;19.88;11.20;;;27.70;83.50;;;;;;5063977;28;20025;-57
2023/03/05 01:26:01;;;;;;;17.17;10.30;;;27.70;83.40;;;;;;5046770;28;20041;-57
2023/03/05 01:28:28;;;;;;;17.50;11.68;;;27.70;83.10;;;;;;5064284;28;20341;-55
2023/03/05 01:30:55;;;;;;;24.70;12.05;;;27.70;83.10;;;;;;5064133;28;20021;-55
2023/03/05 01:33:21;;;;;;;17.17;11.07;;;27.70;83.00;;;;;;5064277;28;20335;-57
2023/03/05 01:35:49;;;;;;;22.38;11.82;;;27.60;82.80;;;;;;5064249;28;20045;-54
2023/03/05 01:38:16;;;;;;;17.73;11.40;;;27.70;82.80;;;;;;5063966;28;20066;-58
2023/03/05 01:40:43;;;;;;;22.75;11.73;;;27.60;82.60;;;;;;5045440;28;20037;-55
2023/03/05 01:43:20;;;;;;;18.80;10.90;;;27.60;82.60;;;;;;5064131;28;20197;-57
2023/03/05 01:46:24;;;;;;;17.40;11.00;;;27.60;82.60;;;;;;5063872;28;20049;-60
2023/03/05 01:48:55;;;;;;;18.83;10.55;;;27.60;82.80;;;;;;5063417;28;20131;-54
2023/03/05 01:51:28;;;;;;;16.17;11.07;;;27.60;82.80;;;;;;5063595;28;20049;-54
2023/03/05 01:53:57;;;;;;;17.52;10.68;;;27.60;82.70;;;;;;5063929;28;20096;-53
2023/03/05 01:56:24;;;;;;;23.33;12.55;;;27.60;82.90;;;;;;5063729;28;20024;-53
2023/03/05 01:58:52;;;;;;;26.38;16.33;;;27.60;83.00;;;;;;5063995;28;20037;-52
2023/03/05 02:01:19;;;;;;;34.55;17.88;;;27.60;83.00;;;;;;5063549;28;20056;-58
2023/03/05 02:03:47;;;;;;;31.70;18.85;;;27.50;82.90;;;;;;5063959;28;20063;-55
2023/03/05 02:06:14;;;;;;;30.55;16.95;;;27.50;83.00;;;;;;5063700;28;20048;-56
2023/03/05 02:08:41;;;;;;;26.20;16.23;;;27.50;83.10;;;;;;5063790;28;20096;-60
2023/03/05 02:11:08;;;;;;;25.25;15.50;;;27.50;83.20;;;;;;5064178;28;20063;-56
2023/03/05 02:13:39;;;;;;;20.55;13.32;;;27.50;83.30;;;;;;5063829;28;20208;-57
2023/03/05 02:16:07;;;;;;;21.30;12.88;;;27.50;83.40;;;;;;5063397;28;20305;-56
2023/03/05 02:18:34;;;;;;;19.13;12.35;;;27.50;83.40;;;;;;5063824;28;20052;-55
2023/03/05 02:21:11;;;;;;;19.08;11.65;;;27.50;83.40;;;;;;5063553;28;20091;-54
2023/03/05 02:23:39;;;;;;;20.08;12.38;;;27.50;83.40;;;;;;5063704;28;20100;-61
2023/03/05 02:26:10;;;;;;;16.92;11.52;;;27.50;83.50;;;;;;5063453;28;20029;-60
2023/03/05 02:29:02;;;;;;;18.25;11.93;;;27.50;83.50;;;;;;5063626;28;20013;-56
2023/03/05 02:31:30;;;;;;;25.38;14.32;;;27.50;83.50;;;;;;5061340;28;20049;-57
2023/03/05 02:33:56;;;;;;;22.60;14.50;;;27.50;83.40;;;;;;5066371;28;20021;-56
2023/03/05 02:36:23;;;;;;;23.63;14.13;;;27.50;83.40;;;;;;5067336;28;20028;-62
2023/03/05 02:38:59;;;;;;;21.48;13.82;;;27.50;83.20;;;;;;5067279;28;20096;-58
2023/03/05 02:41:28;;;;;;;22.15;14.10;;;27.50;83.20;;;;;;5067675;28;20088;-58
2023/03/05 02:43:58;;;;;;;21.52;14.18;;;27.50;83.20;;;;;;5067450;28;20032;-59
2023/03/05 02:46:24;;;;;;;20.20;13.88;;;27.50;83.30;;;;;;5066526;28;20040;-56
2023/03/05 02:48:51;;;;;;;20.20;14.40;;;27.50;83.80;;;;;;5067215;28;20037;-56
2023/03/05 02:51:18;;;;;;;21.10;13.80;;;27.40;83.20;;;;;;5067385;28;20053;-57
2023/03/05 02:53:47;;;;;;;20.05;13.27;;;27.40;83.30;;;;;;5067392;28;20025;-57
2023/03/05 02:56:17;;;;;;;18.20;12.43;;;27.40;83.40;;;;;;5067619;28;20035;-55
2023/03/05 02:58:56;;;;;;;19.08;12.63;;;27.40;83.30;;;;;;5067603;28;20017;-60
2023/03/05 03:01:23;;;;;;;19.35;12.65;;;27.40;83.20;;;;;;5066721;28;20033;-56
2023/03/05 03:04:21;;;;;;;17.90;11.55;;;27.40;83.00;;;;;;5066830;28;20025;-59
2023/03/05 03:07:20;;;;;;;19.13;11.77;;;27.50;82.90;;;;;;5066746;28;20039;-60
2023/03/05 03:09:47;;;;;;;19.08;11.98;;;27.40;83.00;;;;;;5066525;28;20033;-54
2023/03/05 03:12:14;;;;;;;19.50;11.18;;;27.40;83.00;;;;;;5066773;28;20043;-55
2023/03/05 03:14:42;;;;;;;16.40;11.13;;;27.40;83.00;;;;;;5066567;28;20092;-54
2023/03/05 03:17:13;;;;;;;17.52;11.40;;;27.40;82.90;;;;;;5066602;28;20025;-60
2023/03/05 03:19:41;;;;;;;19.63;12.77;;;27.40;82.70;;;;;;5066410;28;20047;-60
2023/03/05 03:22:11;;;;;;;19.08;12.90;;;27.40;82.60;;;;;;5066660;28;20024;-61
2023/03/05 03:24:39;;;;;;;18.88;11.65;;;27.40;82.60;;;;;;5066257;28;20333;-56
2023/03/05 03:27:06;;;;;;;20.85;11.45;;;27.40;82.60;;;;;;5066631;28;20079;-56
2023/03/05 03:29:33;;;;;;;17.27;11.40;;;27.40;82.50;;;;;;5066406;28;20090;-56
2023/03/05 03:32:00;;;;;;;20.05;11.60;;;27.40;82.60;;;;;;5066192;28;20032;-57
2023/03/05 03:34:26;;;;;;;16.75;11.13;;;27.40;82.70;;;;;;5066257;28;20229;-55
2023/03/05 03:36:53;;;;;;;16.75;11.15;;;27.40;82.80;;;;;;5066197;28;20024;-55
2023/03/05 03:39:21;;;;;;;15.85;11.63;;;27.40;82.80;;;;;;5065759;28;20032;-59
2023/03/05 03:41:50;;;;;;;16.88;11.40;;;27.40;82.80;;;;;;5066055;28;20048;-56
2023/03/05 03:44:18;;;;;;;18.23;10.80;;;27.40;82.90;;;;;;5065304;28;20043;-54
2023/03/05 03:46:46;;;;;;;17.20;10.85;;;27.40;82.80;;;;;;5065802;28;20021;-54
2023/03/05 03:49:19;;;;;;;16.17;10.45;;;27.40;82.70;;;;;;5065868;28;20066;-54
2023/03/05 03:51:46;;;;;;;13.73;11.00;;;27.40;82.90;;;;;;5065701;28;20317;-51
2023/03/05 03:54:14;;;;;;;16.92;10.48;;;27.30;82.70;;;;;;5065723;28;20036;-53
2023/03/05 03:56:41;;;;;;;16.70;11.00;;;27.30;82.90;;;;;;5065757;28;20025;-54
2023/03/05 03:59:08;;;;;;;19.00;11.45;;;27.30;82.90;;;;;;5065673;28;20031;-56
2023/03/05 04:01:36;;;;;;;14.80;10.65;;;27.40;83.00;;;;;;5065749;28;20059;-54
2023/03/05 04:04:03;;;;;;;19.25;12.50;;;27.40;82.90;;;;;;5065623;28;20017;-54
2023/03/05 04:06:30;;;;;;;18.27;11.98;;;27.30;82.70;;;;;;5065470;28;20060;-53
2023/03/05 04:08:57;;;;;;;23.70;15.40;;;27.30;82.70;;;;;;5065695;28;20032;-54
2023/03/05 04:11:24;;;;;;;21.38;16.08;;;27.40;82.60;;;;;;5065647;28;20021;-58
2023/03/05 04:13:51;;;;;;;22.50;15.23;;;27.40;82.50;;;;;;5065313;28;20044;-53
2023/03/05 04:16:18;;;;;;;20.90;14.20;;;27.40;82.10;;;;;;5065303;28;20016;-55
2023/03/05 04:18:45;;;;;;;16.27;13.15;;;27.40;82.00;;;;;;5065472;28;20040;-56
2023/03/05 04:21:14;;;;;;;16.45;12.98;;;27.40;82.00;;;;;;5065120;28;20312;-57
2023/03/05 04:23:41;;;;;;;22.13;13.95;;;27.40;82.00;;;;;;5065295;28;20043;-55
2023/03/05 04:26:08;;;;;;;19.02;14.07;;;27.40;82.10;;;;;;5065121;28;20025;-56
2023/03/05 04:28:34;;;;;;;19.70;14.40;;;27.40;81.90;;;;;;5065495;28;20017;-56
2023/03/05 04:31:01;;;;;;;19.33;14.25;;;27.40;81.70;;;;;;5065127;28;20431;-52
2023/03/05 04:33:28;;;;;;;17.73;13.90;;;27.40;81.80;;;;;;5065579;28;20025;-54
2023/03/05 04:36:09;;;;;;;23.73;14.63;;;27.40;81.90;;;;;;5065415;28;20024;-58
2023/03/05 04:41:39;;;;;;;17.25;14.48;;;27.40;81.90;;;;;;5814552;23;20353;-58
2023/03/05 04:44:06;;;;;;;17.25;14.75;;;27.40;81.80;;;;;;5024319;28;20026;-57
2023/03/05 04:46:33;;;;;;;18.40;13.68;;;27.40;82.10;;;;;;5025401;28;20022;-56
2023/03/05 04:49:00;;;;;;;20.13;14.10;;;27.40;82.00;;;;;;5025166;28;20125;-56
2023/03/05 04:51:26;;;;;;;19.23;14.05;;;27.40;82.10;;;;;;5025397;28;20049;-57
2023/03/05 04:53:53;;;;;;;16.38;13.27;;;27.40;82.00;;;;;;5025053;28;20025;-53
2023/03/05 04:56:19;;;;;;;18.75;13.65;;;27.40;81.90;;;;;;5024202;28;20095;-54
2023/03/05 04:58:46;;;;;;;17.75;14.23;;;27.50;82.00;;;;;;5024938;28;20036;-58
2023/03/05 05:01:13;;;;;;;17.35;13.30;;;27.40;82.00;;;;;;5026047;28;20033;-54
2023/03/05 05:03:39;;;;;;;15.20;13.50;;;27.40;82.00;;;;;;5024749;28;20068;-58
2023/03/05 05:06:06;;;;;;;16.33;13.93;;;27.40;82.00;;;;;;5024948;28;20025;-55
2023/03/05 05:08:33;;;;;;;16.45;12.85;;;27.40;82.00;;;;;;5024751;28;20032;-54
2023/03/05 05:11:00;;;;;;;18.52;13.07;;;27.40;82.00;;;;;;5024631;28;20022;-56
2023/03/05 05:13:27;;;;;;;17.42;14.00;;;27.40;82.10;;;;;;5024716;28;20026;-52
2023/03/05 05:15:54;;;;;;;15.27;13.27;;;27.40;82.00;;;;;;5024786;28;20317;-55
2023/03/05 05:18:20;;;;;;;18.13;12.93;;;27.40;81.80;;;;;;5024540;28;20255;-52
2023/03/05 05:20:48;;;;;;;16.98;13.00;;;27.40;82.10;;;;;;5024635;28;20042;-55
2023/03/05 05:23:15;;;;;;;16.45;13.60;;;27.40;82.00;;;;;;5024577;28;20018;-53
2023/03/05 05:25:42;;;;;;;16.10;13.10;;;27.40;82.20;;;;;;5024455;28;20038;-56
2023/03/05 05:28:10;;;;;;;21.27;13.27;;;27.40;82.20;;;;;;5024649;28;20014;-54
2023/03/05 05:30:37;;;;;;;18.40;12.68;;;27.40;82.10;;;;;;5024501;28;20095;-54
2023/03/05 05:33:04;;;;;;;15.63;11.80;;;27.40;82.10;;;;;;5024277;28;20025;-60
2023/03/05 05:35:30;;;;;;;14.73;11.60;;;27.40;82.10;;;;;;5024374;28;20024;-55
2023/03/05 05:37:57;;;;;;;15.90;11.73;;;27.40;82.10;;;;;;5024352;28;20257;-55
2023/03/05 05:40:23;;;;;;;14.40;11.10;;;27.40;82.10;;;;;;5023993;28;20032;-54
2023/03/05 05:42:50;;;;;;;15.20;11.60;;;27.40;81.90;;;;;;5024287;28;20056;-56
2023/03/05 05:45:19;;;;;;;15.50;11.55;;;27.40;81.90;;;;;;5024227;28;20053;-60
2023/03/05 05:47:45;;;;;;;13.98;11.07;;;27.40;81.90;;;;;;5024081;28;20018;-54
2023/03/05 05:50:13;;;;;;;15.30;11.38;;;27.30;82.00;;;;;;5022951;28;20040;-56
2023/03/05 05:52:40;;;;;;;13.00;11.38;;;27.30;82.10;;;;;;5024008;28;20096;-57
2023/03/05 05:55:07;;;;;;;16.80;11.00;;;27.30;82.10;;;;;;5022782;28;20389;-57
2023/03/05 05:57:34;;;;;;;13.98;10.90;;;27.30;82.10;;;;;;5024552;28;20097;-58
2023/03/05 06:00:04;;;;;;;15.93;10.55;;;27.30;82.10;;;;;;5024011;28;20209;-54
2023/03/05 06:02:31;;;;;;;14.32;10.43;;;27.30;82.10;;;;;;5024350;28;20258;-54
2023/03/05 06:04:58;;;;;;;12.90;9.70;;;27.40;82.30;;;;;;5023958;28;20014;-54
2023/03/05 06:07:24;;;;;;;11.95;10.35;;;27.30;82.40;;;;;;5024805;28;20030;-55
2023/03/05 06:09:51;;;;;;;12.05;10.00;;;27.30;82.30;;;;;;5027871;28;20041;-58
2023/03/05 06:12:17;;;;;;;12.07;9.80;;;27.30;82.40;;;;;;5028451;28;20101;-55
2023/03/05 06:14:44;;;;;;;12.77;10.18;;;27.30;82.50;;;;;;5028099;28;20076;-54
2023/03/05 06:17:10;;;;;;;12.45;9.73;;;27.30;82.70;;;;;;5028177;28;20021;-54
2023/03/05 06:19:37;;;;;;;13.63;10.23;;;27.30;82.80;;;;;;5027870;28;20070;-54
2023/03/05 06:22:04;;;;;;;13.07;9.77;;;27.30;82.80;;;;;;5028322;28;20076;-61
2023/03/05 06:24:30;;;;;;;16.67;9.90;;;27.30;83.00;;;;;;5027694;28;20022;-56
2023/03/05 06:26:57;;;;;;;12.52;9.88;;;27.30;82.90;;;;;;5028039;28;20096;-56
2023/03/05 06:29:23;;;;;;;13.80;10.20;;;27.30;82.80;;;;;;5027690;28;20025;-54
2023/03/05 06:31:50;;;;;;;11.57;9.98;;;27.30;82.60;;;;;;5026415;28;20041;-55
2023/03/05 06:34:17;;;;;;;13.18;9.48;;;27.30;82.70;;;;;;5027530;28;20037;-55
2023/03/05 06:36:43;;;;;;;15.40;10.55;;;27.30;82.60;;;;;;5027784;28;20026;-56
2023/03/05 06:39:10;;;;;;;13.57;10.27;;;27.30;82.50;;;;;;5027557;28;20042;-56
2023/03/05 06:41:37;;;;;;;15.98;10.85;;;27.30;82.50;;;;;;5027325;28;20050;-54
2023/03/05 06:44:04;;;;;;;15.10;10.88;;;27.30;82.40;;;;;;5027431;28;20034;-56
2023/03/05 06:46:33;;;;;;;14.75;11.63;;;27.30;82.40;;;;;;5027473;28;20014;-56
2023/03/05 06:49:02;;;;;;;16.13;11.82;;;27.30;82.20;;;;;;5027317;28;20064;-55
2023/03/05 06:51:37;;;;;;;14.32;11.45;;;27.30;82.30;;;;;;5027481;28;20317;-54
2023/03/05 06:54:09;;;;;;;14.80;12.13;;;27.30;82.20;;;;;;5027128;28;20341;-54
2023/03/05 06:56:38;;;;;;;17.67;13.00;;;27.30;82.30;;;;;;5027464;28;20317;-55
2023/03/05 06:59:05;;;;;;;18.38;13.30;;;27.30;82.40;;;;;;5027038;28;20057;-57
2023/03/05 07:01:32;;;;;;;16.77;12.55;;;27.30;82.40;;;;;;5027292;28;20362;-56
2023/03/05 07:03:59;;;;;;;17.08;12.80;;;27.30;82.60;;;;;;5027081;28;20034;-54
2023/03/05 07:06:29;;;;;;;19.75;13.35;;;27.30;82.60;;;;;;5027337;28;20036;-58
2023/03/05 07:08:57;;;;;;;16.30;13.82;;;27.20;82.70;;;;;;5026960;28;20025;-55
2023/03/05 07:11:24;;;;;;;16.33;13.75;;;27.20;82.80;;;;;;5027119;28;20030;-55
2023/03/05 07:13:51;;;;;;;17.08;13.98;;;27.20;82.80;;;;;;5026725;28;20022;-54
2023/03/05 07:16:21;;;;;;;18.00;14.00;;;27.30;82.90;;;;;;5027096;28;20314;-53
2023/03/05 07:18:48;;;;;;;17.67;13.98;;;27.30;82.80;;;;;;5026203;28;20133;-57
2023/03/05 07:21:28;;;;;;;17.48;14.15;;;27.20;82.90;;;;;;5026195;28;20030;-55
2023/03/05 07:23:57;;;;;;;18.80;13.23;;;27.30;82.90;;;;;;5026686;28;20037;-58
2023/03/05 07:26:24;;;;;;;15.27;13.13;;;27.20;82.80;;;;;;5026852;28;20072;-56
2023/03/05 07:28:51;;;;;;;14.55;12.88;;;27.20;82.90;;;;;;5026418;28;20033;-57
2023/03/05 07:31:20;;;;;;;14.98;12.52;;;27.30;83.00;;;;;;5026672;28;20040;-55
2023/03/05 07:33:50;;;;;;;17.83;13.23;;;27.20;82.80;;;;;;5026524;28;20037;-56
2023/03/05 07:36:17;;;;;;;13.40;12.02;;;27.20;82.90;;;;;;5026636;28;20041;-55
2023/03/05 07:38:45;;;;;;;15.93;11.68;;;27.20;82.80;;;;;;5026399;28;20022;-60
2023/03/05 07:41:20;;;;;;;14.77;11.43;;;27.20;82.70;;;;;;5026139;28;20054;-53
2023/03/05 07:43:52;;;;;;;15.13;11.25;;;27.20;82.60;;;;;;5026299;28;20053;-56
2023/03/05 07:46:21;;;;;;;13.55;11.15;;;27.20;82.70;;;;;;5026613;28;20029;-58
2023/03/05 07:48:48;;;;;;;12.70;10.93;;;27.20;82.70;;;;;;5026125;28;20033;-58
2023/03/05 07:51:17;;;;;;;11.63;10.40;;;27.20;82.60;;;;;;5026340;28;20324;-54
2023/03/05 07:53:46;;;;;;;14.48;10.73;;;27.20;82.60;;;;;;5026081;28;20049;-53
2023/03/05 07:56:12;;;;;;;11.88;10.57;;;27.20;82.50;;;;;;5026120;28;20030;-54
2023/03/05 07:58:39;;;;;;;12.07;10.75;;;27.20;82.60;;;;;;5026007;28;20034;-56
2023/03/05 08:01:14;;;;;;;12.27;10.98;;;27.20;82.60;;;;;;5026008;28;20057;-55
2023/03/05 08:03:42;;;;;;;12.90;10.75;;;27.20;83.10;;;;;;5026064;28;20245;-55
2023/03/05 08:06:10;;;;;;;13.63;11.27;;;27.20;82.70;;;;;;5026076;28;20089;-54
2023/03/05 08:08:37;;;;;;;12.75;11.35;;;27.20;82.70;;;;;;5025748;28;20313;-55
2023/03/05 08:11:09;;;;;;;17.42;11.13;;;27.20;82.70;;;;;;5026105;28;20202;-54
2023/03/05 08:13:36;;;;;;;14.15;11.32;;;27.20;82.70;;;;;;5025796;28;20029;-59
2023/03/05 08:16:08;;;;;;;12.98;11.20;;;27.20;82.80;;;;;;5025691;28;20073;-60
2023/03/05 08:18:35;;;;;;;;;;;27.20;82.80;;;;;;5026113;28;20033;-55
2023/03/05 08:21:02;;;;;;;12.93;10.80;;;27.20;82.80;;;;;;5025656;28;19921;-55
2023/03/05 08:23:29;;;;;;;13.00;10.52;;;27.20;82.90;;;;;;5025480;28;20026;-54
2023/03/05 08:25:55;;;;;;;12.38;11.07;;;27.10;82.90;;;;;;5025774;28;20041;-53
2023/03/05 08:28:23;;;;;;;11.80;10.60;;;27.10;83.00;;;;;;5025412;28;20093;-57
2023/03/05 08:30:49;;;;;;;13.27;10.73;;;27.10;83.10;;;;;;5025170;28;20034;-54
2023/03/05 08:33:17;;;;;;;11.90;10.65;;;27.10;83.20;;;;;;5025367;28;20033;-55
2023/03/05 08:35:44;;;;;;;11.93;10.68;;;27.10;83.20;;;;;;5025253;28;20337;-57
2023/03/05 08:38:10;;;;;;;12.30;10.40;;;27.10;83.20;;;;;;5019414;28;20368;-51
2023/03/05 08:40:37;;;;;;;14.70;11.85;;;27.10;83.30;;;;;;5019536;28;20068;-58
2023/03/05 08:43:04;;;;;;;15.88;11.73;;;27.10;83.30;;;;;;5025435;28;20314;-53
2023/03/05 08:45:31;;;;;;;15.18;11.75;;;27.20;83.40;;;;;;5025122;28;20033;-50
2023/03/05 08:47:57;;;;;;;15.23;12.07;;;27.20;83.40;;;;;;5025192;28;20021;-53
2023/03/05 08:50:24;;;;;;;14.75;12.32;;;27.10;83.40;;;;;;5025030;28;20033;-54
2023/03/05 08:52:51;;;;;;;16.85;12.73;;;27.20;83.50;;;;;;5024901;28;20297;-57
2023/03/05 08:55:18;;;;;;;14.85;13.13;;;27.10;83.40;;;;;;5022044;28;20033;-52
2023/03/05 08:57:44;;;;;;;17.05;13.25;;;27.20;83.50;;;;;;5014083;28;20027;-51
2023/03/05 09:00:12;;;;;;;17.25;13.73;;;27.20;83.60;;;;;;5005075;28;20018;-54
2023/03/05 09:02:39;;;;;;;15.10;13.50;;;27.10;83.60;;;;;;5006431;28;20034;-51
2023/03/05 09:05:06;;;;;;;18.33;14.05;;;27.10;83.60;;;;;;5017375;28;20024;-55
2023/03/05 09:07:32;;;;;;;18.92;15.00;;;27.20;83.70;;;;;;5005437;28;20108;-52
2023/03/05 09:09:59;;;;;;;19.42;15.05;;;27.10;83.70;;;;;;5005314;28;20041;-51
2023/03/05 09:12:26;;;;;;;16.85;14.95;;;27.10;83.80;;;;;;5005580;28;20093;-52
2023/03/05 09:14:54;;;;;;;18.08;15.18;;;27.10;83.80;;;;;;5005033;28;20080;-56
2023/03/05 09:17:21;;;;;;;21.23;15.23;;;27.10;83.90;;;;;;5005385;28;20057;-51
2023/03/05 09:19:48;;;;;;;21.27;15.63;;;27.10;83.90;;;;;;5004972;28;20034;-52
2023/03/05 09:22:15;;;;;;;19.10;16.48;;;27.10;83.90;;;;;;5009470;28;20034;-52
2023/03/05 09:24:42;;;;;;;19.30;15.88;;;27.10;83.90;;;;;;5011711;28;20258;-52
2023/03/05 09:27:08;;;;;;;21.45;17.10;;;27.10;84.10;;;;;;5005220;28;20038;-54
2023/03/05 09:29:35;;;;;;;22.02;16.55;;;27.10;84.10;;;;;;5004777;28;20026;-49
2023/03/05 09:32:01;;;;;;;19.83;16.20;;;27.00;84.10;;;;;;5005081;28;20326;-54
2023/03/05 09:34:28;;;;;;;22.52;17.88;;;27.00;84.20;;;;;;5004778;28;20026;-52
2023/03/05 09:36:54;;;;;;;23.48;17.48;;;27.00;84.30;;;;;;5005064;28;20027;-55
2023/03/05 09:39:21;;;;;;;20.80;17.02;;;27.00;84.30;;;;;;5004419;28;20038;-55
2023/03/05 09:42:12;;;;;;;21.60;16.45;;;27.00;84.40;;;;;;5004364;28;20114;-51
2023/03/05 09:44:54;;;;;;;19.63;16.27;;;27.00;84.50;;;;;;5004853;28;20054;-53
2023/03/05 09:47:42;;;;;;;20.42;16.90;;;27.00;84.60;;;;;;5005131;28;20030;-52
2023/03/05 09:50:31;;;;;;;19.35;17.05;;;27.00;84.70;;;;;;5004628;28;20030;-52
2023/03/05 09:53:04;;;;;;;18.80;16.70;;;27.00;84.60;;;;;;5004382;28;20065;-54
2023/03/05 09:55:42;;;;;;;20.65;17.05;;;27.00;84.80;;;;;;5004405;28;20046;-50
2023/03/05 09:58:29;;;;;;;19.75;17.25;;;27.00;85.00;;;;;;5004207;28;20033;-53
2023/03/05 10:01:01;;;;;;;20.80;16.88;;;27.00;85.00;;;;;;4994342;28;20258;-52
2023/03/05 10:03:43;;;;;;;22.13;17.13;;;27.00;85.10;;;;;;5004302;28;20034;-55
2023/03/05 10:06:19;;;;;;;22.38;18.95;;;27.00;85.10;;;;;;5004583;28;20092;-52
2023/03/05 10:09:13;;;;;;;29.48;19.70;;;26.90;85.20;;;;;;5004251;28;20084;-52
2023/03/05 10:11:49;;;;;;;25.55;20.90;;;26.90;85.20;;;;;;5004339;28;20330;-56
2023/03/05 10:14:24;;;;;;;24.50;20.17;;;26.90;85.20;;;;;;5004380;28;20037;-51
2023/03/05 10:16:54;;;;;;;24.70;19.27;;;26.90;85.30;;;;;;5004570;28;20068;-62
2023/03/05 10:19:50;;;;;;;21.50;19.23;;;26.90;85.40;;;;;;5004003;28;20101;-52
2023/03/05 10:22:24;;;;;;;28.02;21.52;;;26.90;85.40;;;;;;5004620;28;20113;-54
2023/03/05 10:25:00;;;;;;;26.35;20.65;;;26.90;85.50;;;;;;5004257;28;20069;-52
2023/03/05 10:27:26;;;;;;;31.88;22.08;;;26.90;85.80;;;;;;5004717;28;20249;-52
2023/03/05 10:30:02;;;;;;;29.30;21.92;;;26.90;85.80;;;;;;5004101;28;20104;-52
2023/03/05 10:32:52;;;;;;;36.10;27.70;;;26.90;85.80;;;;;;5004601;28;20047;-57
2023/03/05 10:35:33;;;;;;;49.90;32.88;;;26.90;85.90;;;;;;4974060;28;20088;-56
2023/03/05 10:38:12;;;;;;;48.90;33.20;;;26.90;86.20;;;;;;5004382;28;20030;-53
2023/03/05 10:40:45;;;;;;;44.83;31.60;;;26.90;86.30;;;;;;5003818;28;20034;-51
2023/03/05 10:43:33;;;;;;;39.00;29.10;;;26.90;86.40;;;;;;5003975;28;20336;-51
2023/03/05 10:46:03;;;;;;;39.13;27.77;;;26.90;86.50;;;;;;5004286;28;20194;-51
2023/03/05 10:48:39;;;;;;;39.83;27.83;;;26.80;86.50;;;;;;5004000;28;20034;-53
2023/03/05 10:51:21;;;;;;;40.15;28.95;;;26.80;86.70;;;;;;5004305;28;20026;-57
2023/03/05 10:53:47;;;;;;;;;;;26.90;86.70;;;;;;5005559;28;20344;-51
2023/03/05 10:56:17;;;;;;;33.53;24.77;;;26.80;86.60;;;;;;5007781;28;19984;-54
2023/03/05 10:58:44;;;;;;;35.45;24.15;;;26.80;86.70;;;;;;5007742;28;20023;-50
2023/03/05 11:01:11;;;;;;;34.65;23.40;;;26.80;86.80;;;;;;5007501;28;20038;-51
2023/03/05 11:03:49;;;;;;;30.95;22.50;;;26.80;86.80;;;;;;5007441;28;20039;-54
2023/03/05 11:06:26;;;;;;;29.77;22.58;;;26.80;86.80;;;;;;5007665;28;20034;-56
2023/03/05 11:08:53;;;;;;;28.65;22.42;;;26.80;86.80;;;;;;5007514;28;20045;-55
2023/03/05 11:11:22;;;;;;;33.03;22.48;;;26.80;86.90;;;;;;5007468;28;20080;-54
2023/03/05 11:13:54;;;;;;;32.60;21.52;;;26.80;87.00;;;;;;5007213;28;20053;-48
2023/03/05 11:16:25;;;;;;;26.77;20.42;;;26.80;87.00;;;;;;5007418;28;20034;-50
2023/03/05 11:19:14;;;;;;;25.50;20.90;;;26.80;87.00;;;;;;5007245;28;20275;-52
2023/03/05 11:21:42;;;;;;;26.05;21.13;;;26.80;87.20;;;;;;5007361;28;20101;-52
2023/03/05 11:24:18;;;;;;;27.15;21.02;;;26.80;87.10;;;;;;5007184;28;20026;-52
2023/03/05 11:26:56;;;;;;;27.83;20.95;;;26.80;87.10;;;;;;5007309;28;20090;-53
2023/03/05 11:29:26;;;;;;;28.17;20.60;;;26.80;87.20;;;;;;5007094;28;20052;-54
2023/03/05 11:31:53;;;;;;;28.02;21.38;;;26.80;87.10;;;;;;5007233;28;20282;-49
2023/03/05 11:34:22;;;;;;;23.73;19.20;;;26.80;87.20;;;;;;5006998;28;20042;-51
2023/03/05 11:36:52;;;;;;;24.95;19.35;;;26.80;87.20;;;;;;5007215;28;20144;-52
2023/03/05 11:39:23;;;;;;;24.92;17.98;;;26.80;87.30;;;;;;5006462;28;20218;-51
2023/03/05 11:41:57;;;;;;;23.20;18.02;;;26.80;87.30;;;;;;5005795;28;20097;-52
2023/03/05 11:44:41;;;;;;;20.20;17.80;;;26.80;87.40;;;;;;5006614;28;20042;-57
2023/03/05 11:47:43;;;;;;;23.95;18.35;;;26.80;87.50;;;;;;5007038;28;20018;-52
2023/03/05 11:50:30;;;;;;;24.58;17.55;;;26.80;87.60;;;;;;5006662;28;20026;-60
2023/03/05 11:53:18;;;;;;;25.92;17.92;;;26.80;87.70;;;;;;5006548;28;20310;-55
2023/03/05 11:56:26;;;;;;;22.08;17.65;;;26.80;87.80;;;;;;5006653;28;20064;-52
2023/03/05 11:59:02;;;;;;;25.83;17.13;;;26.70;87.80;;;;;;4993841;28;20246;-54
2023/03/05 12:01:34;;;;;;;23.35;17.42;;;26.70;87.90;;;;;;5006584;28;20037;-52
2023/03/05 12:04:02;;;;;;;23.02;17.35;;;26.70;87.90;;;;;;5006349;28;20022;-51
2023/03/05 12:06:50;;;;;;;24.92;17.67;;;26.70;87.90;;;;;;5005939;28;20369;-51
2023/03/05 12:09:40;;;;;;;23.60;18.10;;;26.70;88.00;;;;;;5006247;28;20018;-56
2023/03/05 12:12:07;;;;;;;25.23;18.30;;;26.70;88.10;;;;;;4995303;28;20064;-51
2023/03/05 12:14:50;;;;;;;23.95;16.83;;;26.80;88.20;;;;;;5006325;28;20048;-56
2023/03/05 12:17:34;;;;;;;22.63;16.88;;;26.80;88.70;;;;;;5006605;28;20262;-54
2023/03/05 12:20:17;;;;;;;23.50;17.02;;;26.80;88.10;;;;;;5006148;28;20318;-57
2023/03/05 12:23:02;;;;;;;26.10;17.20;;;26.70;87.90;;;;;;5006183;28;20049;-55
2023/03/05 12:25:33;;;;;;;26.13;17.50;;;26.80;88.00;;;;;;5004861;28;20065;-53
2023/03/05 12:28:01;;;;;;;21.33;17.23;;;26.80;88.00;;;;;;5006062;28;20061;-53
2023/03/05 12:30:33;;;;;;;20.20;16.67;;;26.80;88.00;;;;;;5004882;28;20029;-53
2023/03/05 12:33:29;;;;;;;22.25;17.42;;;26.70;88.00;;;;;;5006081;28;20337;-53
2023/03/05 12:36:21;;;;;;;21.15;15.93;;;26.80;88.10;;;;;;5005881;28;20279;-56
2023/03/05 12:38:52;;;;;;;25.60;17.65;;;26.80;88.10;;;;;;5005885;28;20034;-55
2023/03/05 12:41:22;;;;;;;23.92;16.70;;;26.80;88.30;;;;;;5005428;28;20130;-52
2023/03/05 12:44:18;;;;;;;20.90;16.95;;;26.80;88.30;;;;;;5005715;28;20030;-53
2023/03/05 12:47:05;;;;;;;18.38;15.27;;;26.80;88.50;;;;;;5004733;28;20030;-54
2023/03/05 12:49:45;;;;;;;26.85;16.48;;;26.70;88.40;;;;;;5005644;28;20369;-56